Time;durP1;ratioP1;P1;durP2;ratioP2;P2;SDS_P1;SDS_P2;PMS_P1;PMS_P2;Temp;Humidity;BMP_temperature;BMP_pressure;BME280_temperature;BME280_humidity;BME280_pressure;Samples;Min_cycle;Max_cycle;Signal;HPM_P1;HPM_P2
2022/10/10 00:00:22;;;;;;;83.72;79.03;;;11.60;99.90;;;;;;4953645;28;20414;-54
2022/10/10 00:02:48;;;;;;;84.47;79.83;;;11.60;99.90;;;;;;4953815;28;20495;-55
2022/10/10 00:05:14;;;;;;;85.25;80.55;;;11.60;99.90;;;;;;4954873;28;20679;-50
2022/10/10 00:07:39;;;;;;;84.60;80.00;;;11.70;99.90;;;;;;4954129;28;20397;-50
2022/10/10 00:10:05;;;;;;;89.50;84.23;;;11.60;99.90;;;;;;4955484;28;20386;-54
2022/10/10 00:12:31;;;;;;;88.37;83.37;;;11.70;99.90;;;;;;4954016;28;20394;-55
2022/10/10 00:14:57;;;;;;;87.20;82.47;;;11.60;99.90;;;;;;4953707;28;20405;-55
2022/10/10 00:17:23;;;;;;;83.15;78.35;;;11.60;99.90;;;;;;4954920;28;20408;-53
2022/10/10 00:19:48;;;;;;;88.43;83.55;;;11.50;99.90;;;;;;4954079;28;20397;-55
2022/10/10 00:22:14;;;;;;;86.33;81.63;;;11.40;99.90;;;;;;4954976;28;20398;-55
2022/10/10 00:24:39;;;;;;;82.38;77.93;;;11.40;99.90;;;;;;4955557;28;20405;-55
2022/10/10 00:27:05;;;;;;;87.07;82.27;;;11.40;99.90;;;;;;4956039;28;20412;-51
2022/10/10 00:29:31;;;;;;;91.70;86.60;;;11.40;99.90;;;;;;4957609;28;20498;-57
2022/10/10 00:31:56;;;;;;;87.60;82.70;;;11.40;99.90;;;;;;4957339;28;20417;-56
2022/10/10 00:34:22;;;;;;;85.13;80.27;;;11.30;99.90;;;;;;4954610;28;20623;-54
2022/10/10 00:36:47;;;;;;;86.43;81.47;;;11.30;99.90;;;;;;4955278;28;20433;-55
2022/10/10 00:39:13;;;;;;;83.30;78.50;;;11.30;99.90;;;;;;4954266;28;20398;-51
2022/10/10 00:41:38;;;;;;;88.37;83.47;;;11.30;99.90;;;;;;4956190;28;20543;-54
2022/10/10 00:44:11;;;;;;;90.45;85.35;;;11.30;99.90;;;;;;4954553;28;20496;-55
2022/10/10 00:46:37;;;;;;;85.35;80.68;;;11.20;99.90;;;;;;4953601;28;20417;-53
2022/10/10 00:49:09;;;;;;;88.82;83.72;;;11.20;99.90;;;;;;4954155;28;20385;-55
2022/10/10 00:51:35;;;;;;;84.45;79.85;;;11.20;99.90;;;;;;4954786;28;20414;-55
2022/10/10 00:54:05;;;;;;;84.67;80.07;;;11.20;99.90;;;;;;4954943;28;20461;-52
2022/10/10 00:57:04;;;;;;;88.75;83.82;;;11.10;99.90;;;;;;4954636;28;20392;-51
2022/10/10 00:59:32;;;;;;;92.70;87.55;;;11.10;99.90;;;;;;4952553;29;20413;-54
2022/10/10 01:01:58;;;;;;;92.75;87.75;;;11.00;99.90;;;;;;4954126;28;20417;-51
2022/10/10 01:04:50;;;;;;;88.63;83.73;;;11.00;99.90;;;;;;4954537;28;21044;-53
2022/10/10 01:07:27;;;;;;;89.85;85.00;;;11.00;99.90;;;;;;4954608;29;20425;-50
2022/10/10 01:09:58;;;;;;;87.43;82.35;;;11.00;99.90;;;;;;4957370;28;20418;-53
2022/10/10 01:12:37;;;;;;;88.60;83.63;;;11.00;99.90;;;;;;4956645;28;20678;-53
2022/10/10 01:15:27;;;;;;;92.00;86.97;;;10.90;99.90;;;;;;4956605;28;20814;-51
2022/10/10 01:18:32;;;;;;;84.07;79.37;;;10.90;99.90;;;;;;4954353;28;20626;-54
2022/10/10 01:21:04;;;;;;;81.18;76.57;;;10.90;99.90;;;;;;4952050;29;20786;-53
2022/10/10 01:23:48;;;;;;;85.65;80.70;;;10.90;99.90;;;;;;4954881;28;20398;-51
2022/10/10 01:26:27;;;;;;;77.50;73.10;;;10.90;99.90;;;;;;4956114;28;20433;-52
2022/10/10 01:29:06;;;;;;;80.00;75.47;;;10.90;99.90;;;;;;4954518;28;20413;-50
2022/10/10 01:31:37;;;;;;;87.65;82.80;;;10.80;99.90;;;;;;4954653;28;20496;-54
2022/10/10 01:34:18;;;;;;;95.90;90.60;;;10.80;99.90;;;;;;4954767;28;20402;-53
2022/10/10 01:36:53;;;;;;;98.20;92.80;;;10.80;99.90;;;;;;4954284;28;20794;-50
2022/10/10 01:39:50;;;;;;;98.22;92.82;;;10.80;99.90;;;;;;4954092;28;20690;-52
2022/10/10 01:42:29;;;;;;;90.78;85.82;;;10.70;99.90;;;;;;4955082;28;20398;-53
2022/10/10 01:44:55;;;;;;;93.72;88.45;;;10.50;99.90;;;;;;4954667;28;20421;-54
2022/10/10 01:47:21;;;;;;;85.15;80.30;;;10.50;99.90;;;;;;4952418;28;20398;-53
2022/10/10 01:49:50;;;;;;;87.30;82.35;;;10.50;99.90;;;;;;4952483;28;20384;-58
2022/10/10 01:52:53;;;;;;;85.50;80.75;;;10.50;99.90;;;;;;4955031;28;20746;-53
2022/10/10 01:55:58;;;;;;;84.13;79.60;;;10.50;99.90;;;;;;4954414;28;20726;-56
2022/10/10 01:58:48;;;;;;;82.13;77.53;;;10.40;99.90;;;;;;4952626;28;20514;-54
2022/10/10 02:01:20;;;;;;;80.43;76.23;;;10.40;99.90;;;;;;4953942;29;20413;-54
2022/10/10 02:03:53;;;;;;;78.28;73.88;;;10.40;99.90;;;;;;4955582;28;20401;-55
2022/10/10 02:06:29;;;;;;;69.32;65.43;;;10.40;99.90;;;;;;4955933;28;20417;-51
2022/10/10 02:09:05;;;;;;;71.28;67.28;;;10.40;99.90;;;;;;4956229;28;20396;-55
2022/10/10 02:11:35;;;;;;;66.65;63.03;;;10.30;99.90;;;;;;4956008;28;20661;-54
2022/10/10 02:14:21;;;;;;;59.65;56.08;;;10.20;99.90;;;;;;4954937;28;20441;-57
2022/10/10 02:16:52;;;;;;;57.25;53.88;;;10.10;99.90;;;;;;4955606;28;20582;-55
2022/10/10 02:19:20;;;;;;;56.83;53.63;;;10.20;99.90;;;;;;4955884;28;20385;-52
2022/10/10 02:21:51;;;;;;;51.75;48.75;;;10.20;99.90;;;;;;4954899;29;20537;-53
2022/10/10 02:24:19;;;;;;;54.60;51.58;;;10.20;99.90;;;;;;4954830;28;20797;-54
2022/10/10 02:26:51;;;;;;;57.95;54.55;;;10.20;99.90;;;;;;4954433;28;20444;-52
2022/10/10 02:29:27;;;;;;;62.35;58.70;;;10.20;99.90;;;;;;4954941;28;20512;-53
2022/10/10 02:32:04;;;;;;;59.25;55.97;;;10.20;99.90;;;;;;4955304;28;20445;-55
2022/10/10 02:34:36;;;;;;;61.80;58.45;;;10.20;99.90;;;;;;4957622;28;20398;-53
2022/10/10 02:37:06;;;;;;;65.57;61.72;;;10.20;99.90;;;;;;4957140;28;20392;-52
2022/10/10 02:39:35;;;;;;;65.03;61.33;;;10.10;99.90;;;;;;4957080;28;20400;-50
2022/10/10 02:42:04;;;;;;;68.32;64.40;;;10.10;99.90;;;;;;4956518;29;20393;-50
2022/10/10 02:44:30;;;;;;;64.88;61.25;;;10.10;99.90;;;;;;4955726;28;20413;-54
2022/10/10 02:46:56;;;;;;;64.13;60.53;;;10.00;99.90;;;;;;4955948;28;20446;-51
2022/10/10 02:49:27;;;;;;;63.20;59.80;;;10.00;99.90;;;;;;4956487;28;20425;-52
2022/10/10 02:51:53;;;;;;;60.67;57.35;;;10.00;99.90;;;;;;4956325;28;20810;-53
2022/10/10 02:54:19;;;;;;;58.13;54.72;;;10.00;99.90;;;;;;4954876;28;20441;-50
2022/10/10 02:56:44;;;;;;;58.27;54.77;;;10.00;99.90;;;;;;4954590;28;20411;-54
2022/10/10 02:59:10;;;;;;;61.87;58.47;;;10.00;99.90;;;;;;4951418;28;20678;-57
2022/10/10 03:01:35;;;;;;;58.17;54.97;;;10.00;99.90;;;;;;4953003;28;20398;-55
2022/10/10 03:04:01;;;;;;;60.00;56.20;;;9.90;99.90;;;;;;4953347;28;20632;-55
2022/10/10 03:06:27;;;;;;;58.20;54.93;;;10.00;99.90;;;;;;4953901;28;20830;-53
2022/10/10 03:08:52;;;;;;;66.85;63.05;;;10.00;99.90;;;;;;4953354;28;20537;-54
2022/10/10 03:11:18;;;;;;;63.08;59.45;;;10.00;99.90;;;;;;4952006;28;20429;-54
2022/10/10 03:17:06;;;;;;;59.13;55.92;;;9.90;99.90;;;;;;4953933;29;20397;-57
2022/10/10 03:19:32;;;;;;;57.58;54.35;;;9.80;99.90;;;;;;4951333;28;20398;-56
2022/10/10 03:21:57;;;;;;;62.42;58.95;;;9.70;99.90;;;;;;4951660;28;20398;-55
2022/10/10 03:24:23;;;;;;;62.17;58.77;;;9.70;99.90;;;;;;4951885;28;20426;-56
2022/10/10 03:26:48;;;;;;;61.20;57.57;;;9.70;99.90;;;;;;4952663;28;20451;-55
2022/10/10 03:29:14;;;;;;;53.63;50.47;;;9.60;99.90;;;;;;4951870;28;20853;-55
2022/10/10 03:31:39;;;;;;;51.83;48.90;;;9.60;99.90;;;;;;4950915;28;20684;-54
2022/10/10 03:34:05;;;;;;;46.78;43.95;;;9.50;99.90;;;;;;4952379;28;20398;-54
2022/10/10 03:36:30;;;;;;;43.03;40.53;;;9.50;99.90;;;;;;4951790;28;20405;-55
2022/10/10 03:38:56;;;;;;;43.77;41.13;;;9.50;99.90;;;;;;4950529;28;20461;-53
2022/10/10 03:41:21;;;;;;;52.65;49.50;;;9.40;99.90;;;;;;4949548;28;20763;-56
2022/10/10 03:43:47;;;;;;;59.57;56.20;;;9.40;99.90;;;;;;4951189;28;20686;-54
2022/10/10 03:46:13;;;;;;;61.00;57.70;;;9.50;99.90;;;;;;4952467;28;20521;-56
2022/10/10 03:48:38;;;;;;;64.63;60.93;;;9.40;99.90;;;;;;4954311;28;20786;-52
2022/10/10 03:51:05;;;;;;;62.90;59.40;;;9.40;99.90;;;;;;4952818;28;20441;-55
2022/10/10 03:53:30;;;;;;;57.83;54.38;;;9.40;99.90;;;;;;4951517;28;20386;-53
2022/10/10 03:55:56;;;;;;;58.63;55.25;;;9.40;99.90;;;;;;4951844;28;20674;-53
2022/10/10 03:58:22;;;;;;;58.55;55.13;;;9.30;99.90;;;;;;4951606;28;20578;-56
2022/10/10 04:00:59;;;;;;;59.92;56.53;;;9.30;99.90;;;;;;4949747;28;20493;-53
2022/10/10 04:03:25;;;;;;;61.33;57.77;;;9.30;99.90;;;;;;4950026;28;20390;-56
2022/10/10 04:05:51;;;;;;;59.97;56.47;;;9.30;99.90;;;;;;4950210;28;20414;-54
2022/10/10 04:08:17;;;;;;;60.20;56.80;;;9.30;99.90;;;;;;4949917;28;20409;-53
2022/10/10 04:10:46;;;;;;;60.83;57.33;;;9.30;99.90;;;;;;4950466;28;20512;-50
2022/10/10 04:13:12;;;;;;;71.88;67.68;;;9.30;99.90;;;;;;4950290;28;20425;-54
2022/10/10 04:15:38;;;;;;;67.13;63.43;;;9.20;99.90;;;;;;4950095;28;20385;-52
2022/10/10 04:18:03;;;;;;;71.03;66.80;;;9.30;99.90;;;;;;4949551;28;20698;-53
2022/10/10 04:20:29;;;;;;;71.90;68.10;;;9.30;99.90;;;;;;4950646;28;20473;-53
2022/10/10 04:22:54;;;;;;;69.20;65.27;;;9.20;99.90;;;;;;4952806;28;20456;-52
2022/10/10 04:25:20;;;;;;;69.95;66.10;;;9.20;99.90;;;;;;4949823;28;20746;-53
2022/10/10 04:27:45;;;;;;;70.73;66.83;;;9.20;99.90;;;;;;4954629;28;20776;-56
2022/10/10 04:30:12;;;;;;;74.30;69.87;;;9.20;99.90;;;;;;4952367;28;20433;-54
2022/10/10 04:32:38;;;;;;;71.80;67.77;;;9.20;99.90;;;;;;4955100;28;20390;-57
2022/10/10 04:35:04;;;;;;;76.53;72.17;;;9.10;99.90;;;;;;4955055;28;20396;-56
2022/10/10 04:37:29;;;;;;;77.07;72.78;;;9.10;99.90;;;;;;4955743;28;20414;-50
2022/10/10 04:39:55;;;;;;;77.97;73.47;;;9.10;99.90;;;;;;4954745;28;20508;-52
2022/10/10 04:42:21;;;;;;;79.57;75.07;;;9.10;99.90;;;;;;4954148;28;20421;-55
2022/10/10 04:44:46;;;;;;;75.95;71.85;;;9.10;99.90;;;;;;4952988;28;20402;-56
2022/10/10 04:47:12;;;;;;;74.85;70.55;;;9.10;99.90;;;;;;4952495;28;20429;-57
2022/10/10 04:49:40;;;;;;;75.50;71.50;;;9.10;99.90;;;;;;4950949;28;20394;-52
2022/10/10 04:52:07;;;;;;;69.30;65.60;;;9.10;99.90;;;;;;4951729;28;20393;-54
2022/10/10 04:54:32;;;;;;;67.97;64.28;;;9.10;99.90;;;;;;4951262;28;20528;-55
2022/10/10 04:56:58;;;;;;;65.43;61.83;;;9.10;99.90;;;;;;4950905;28;20495;-56
2022/10/10 04:59:23;;;;;;;60.15;56.75;;;9.00;99.90;;;;;;4949477;28;20405;-57
2022/10/10 05:01:49;;;;;;;63.25;59.65;;;9.00;99.90;;;;;;4947812;28;20398;-55
2022/10/10 05:04:15;;;;;;;62.67;59.17;;;9.00;99.90;;;;;;4949081;28;20452;-55
2022/10/10 05:06:40;;;;;;;59.63;56.03;;;8.90;99.90;;;;;;4948657;28;20417;-56
2022/10/10 05:09:06;;;;;;;54.43;51.43;;;8.90;99.90;;;;;;4949502;28;20398;-57
2022/10/10 05:11:31;;;;;;;58.72;55.22;;;8.90;99.90;;;;;;4947730;28;20485;-53
2022/10/10 05:13:57;;;;;;;56.17;52.93;;;8.90;99.90;;;;;;4944948;28;20488;-57
2022/10/10 05:16:23;;;;;;;59.07;55.77;;;8.80;99.90;;;;;;4944968;28;20398;-57
2022/10/10 05:18:48;;;;;;;55.40;52.15;;;8.80;99.90;;;;;;4944431;28;20478;-54
2022/10/10 05:21:14;;;;;;;53.45;50.47;;;8.70;99.90;;;;;;4946273;28;20409;-55
2022/10/10 05:23:42;;;;;;;50.17;47.47;;;8.70;99.90;;;;;;4946360;28;20401;-56
2022/10/10 05:26:09;;;;;;;53.40;50.30;;;8.70;99.90;;;;;;4947536;28;20977;-52
2022/10/10 05:28:35;;;;;;;52.58;49.72;;;8.80;99.90;;;;;;4950652;28;20889;-53
2022/10/10 05:31:02;;;;;;;52.00;49.10;;;8.90;99.90;;;;;;4953443;28;20433;-55
2022/10/10 05:33:29;;;;;;;51.10;48.30;;;8.80;99.90;;;;;;4953384;28;20801;-56
2022/10/10 05:36:05;;;;;;;52.15;49.13;;;8.80;99.90;;;;;;4953520;28;20730;-55
2022/10/10 05:38:31;;;;;;;53.25;49.92;;;8.80;99.90;;;;;;4948030;28;20496;-53
2022/10/10 05:40:56;;;;;;;49.23;46.27;;;8.70;99.90;;;;;;4947389;28;20476;-51
2022/10/10 05:43:22;;;;;;;50.53;47.38;;;8.70;99.90;;;;;;4942958;28;20423;-53
2022/10/10 05:45:47;;;;;;;53.40;50.23;;;8.70;99.90;;;;;;4945228;28;20806;-55
2022/10/10 05:48:15;;;;;;;51.33;48.35;;;8.80;99.90;;;;;;4945735;29;21420;-52
2022/10/10 05:50:46;;;;;;;51.22;48.22;;;8.70;99.90;;;;;;4947439;28;20397;-52
2022/10/10 05:53:12;;;;;;;53.70;50.67;;;8.70;99.90;;;;;;4947098;28;20430;-56
2022/10/10 05:55:38;;;;;;;52.20;49.13;;;8.70;99.90;;;;;;4947904;28;20926;-55
2022/10/10 05:58:04;;;;;;;50.38;47.53;;;8.70;99.90;;;;;;4946453;28;20645;-55
2022/10/10 06:00:30;;;;;;;53.00;49.83;;;8.70;99.90;;;;;;4944817;28;20466;-53
2022/10/10 06:02:57;;;;;;;51.57;48.57;;;8.70;99.90;;;;;;4944374;28;20400;-55
2022/10/10 06:05:23;;;;;;;51.33;48.13;;;8.70;99.90;;;;;;4949772;28;20475;-55
2022/10/10 06:07:49;;;;;;;54.72;51.63;;;8.70;99.90;;;;;;4949302;28;20489;-56
2022/10/10 06:10:14;;;;;;;54.33;51.00;;;8.70;99.90;;;;;;4943424;28;20431;-53
2022/10/10 06:12:40;;;;;;;46.47;43.77;;;8.60;99.90;;;;;;4942077;28;20401;-54
2022/10/10 06:15:06;;;;;;;52.10;49.17;;;8.80;99.90;;;;;;4942264;28;20630;-52
2022/10/10 06:17:32;;;;;;;51.97;49.07;;;8.70;99.90;;;;;;4942617;28;20428;-52
2022/10/10 06:19:58;;;;;;;51.50;48.40;;;8.80;99.90;;;;;;4943945;28;20693;-54
2022/10/10 06:22:24;;;;;;;53.25;50.17;;;8.80;99.90;;;;;;4944501;28;20531;-52
2022/10/10 06:24:49;;;;;;;49.85;47.00;;;8.90;99.90;;;;;;4944375;28;20636;-58
2022/10/10 06:27:15;;;;;;;55.10;51.90;;;8.90;99.90;;;;;;4944808;28;20521;-55
2022/10/10 06:29:40;;;;;;;54.00;50.90;;;8.90;99.90;;;;;;4943978;28;20865;-55
2022/10/10 06:32:06;;;;;;;54.35;51.20;;;8.90;99.90;;;;;;4945777;28;20835;-58
2022/10/10 06:34:33;;;;;;;52.07;48.97;;;8.90;99.90;;;;;;4945902;28;20655;-53
2022/10/10 06:36:58;;;;;;;48.78;46.08;;;9.00;99.90;;;;;;4942120;28;20429;-54
2022/10/10 06:39:24;;;;;;;50.50;47.10;;;8.90;99.90;;;;;;4940532;28;20789;-54
2022/10/10 06:41:49;;;;;;;49.63;46.67;;;8.90;99.90;;;;;;4941222;28;20425;-53
2022/10/10 06:44:18;;;;;;;52.70;49.70;;;8.90;99.90;;;;;;4945343;28;20412;-56
2022/10/10 06:46:44;;;;;;;47.72;44.90;;;8.90;99.90;;;;;;4944073;29;20426;-56
2022/10/10 06:49:10;;;;;;;50.90;48.17;;;8.90;99.90;;;;;;4944119;29;20462;-52
2022/10/10 06:51:37;;;;;;;52.47;49.50;;;9.00;99.90;;;;;;4944040;29;21027;-54
2022/10/10 06:54:03;;;;;;;52.50;49.50;;;9.00;99.90;;;;;;4944065;29;20489;-55
2022/10/10 06:56:29;;;;;;;49.93;46.83;;;9.00;99.90;;;;;;4944557;29;20796;-53
2022/10/10 06:58:55;;;;;;;54.47;51.27;;;9.00;99.90;;;;;;4946575;29;20411;-54
2022/10/10 07:01:22;;;;;;;49.60;46.60;;;9.00;99.90;;;;;;4946286;28;20402;-55
2022/10/10 07:03:49;;;;;;;51.25;48.33;;;9.00;99.90;;;;;;4943994;29;20483;-55
2022/10/10 07:06:15;;;;;;;50.75;47.92;;;9.10;99.90;;;;;;4942317;29;20970;-57
2022/10/10 07:08:41;;;;;;;52.95;49.72;;;9.10;99.90;;;;;;4940451;29;20429;-55
2022/10/10 07:11:07;;;;;;;55.78;52.47;;;9.20;99.90;;;;;;4939778;29;20596;-54
2022/10/10 07:13:34;;;;;;;53.33;50.25;;;9.20;99.90;;;;;;4938707;29;20919;-55
2022/10/10 07:15:59;;;;;;;58.58;55.28;;;9.20;99.90;;;;;;4941437;29;20431;-55
2022/10/10 07:18:25;;;;;;;63.92;60.10;;;9.30;99.90;;;;;;4940751;28;20389;-57
2022/10/10 07:20:55;;;;;;;62.55;59.08;;;9.20;99.90;;;;;;4939692;29;20492;-56
2022/10/10 07:23:20;;;;;;;59.08;55.67;;;9.20;99.90;;;;;;4939115;29;20394;-55
2022/10/10 07:25:46;;;;;;;59.30;56.20;;;9.20;99.90;;;;;;4936913;29;20417;-53
2022/10/10 07:28:12;;;;;;;63.63;60.20;;;9.30;99.90;;;;;;4932290;29;20452;-53
2022/10/10 07:30:42;;;;;;;63.90;60.40;;;9.40;99.90;;;;;;4929668;29;20414;-53
2022/10/10 07:33:08;;;;;;;68.95;64.95;;;9.40;99.90;;;;;;4930589;29;20398;-55
2022/10/10 07:35:34;;;;;;;67.63;63.78;;;9.40;99.90;;;;;;4930330;29;20405;-54
2022/10/10 07:38:00;;;;;;;66.15;62.50;;;9.40;99.90;;;;;;4931681;29;20390;-52
2022/10/10 07:40:26;;;;;;;65.88;62.25;;;9.50;99.90;;;;;;4932883;29;20515;-56
2022/10/10 07:42:51;;;;;;;68.70;64.68;;;9.50;99.90;;;;;;4934748;29;20821;-55
2022/10/10 07:45:17;;;;;;;72.77;68.97;;;9.60;99.90;;;;;;4935045;29;20402;-55
2022/10/10 07:47:43;;;;;;;73.00;69.05;;;9.60;99.90;;;;;;4934344;29;20619;-54
2022/10/10 07:50:10;;;;;;;79.47;75.22;;;9.70;99.90;;;;;;4934600;29;20413;-52
2022/10/10 07:52:36;;;;;;;70.60;66.60;;;9.70;99.90;;;;;;4940570;29;20449;-56
2022/10/10 07:55:03;;;;;;;72.75;68.60;;;9.70;99.90;;;;;;4938313;29;20622;-54
2022/10/10 07:57:33;;;;;;;74.63;70.68;;;9.70;99.90;;;;;;4941827;28;20393;-57
2022/10/10 08:00:00;;;;;;;76.07;71.85;;;9.80;99.90;;;;;;4942509;29;20869;-57
2022/10/10 08:02:26;;;;;;;77.53;73.35;;;9.80;99.90;;;;;;4943523;29;20766;-55
2022/10/10 08:04:52;;;;;;;77.88;73.45;;;9.80;99.90;;;;;;4943132;29;20444;-54
2022/10/10 08:07:18;;;;;;;75.57;71.43;;;9.80;99.90;;;;;;4942459;29;20413;-57
2022/10/10 08:09:44;;;;;;;78.43;74.13;;;9.80;99.90;;;;;;4944535;28;20774;-54
2022/10/10 08:12:10;;;;;;;74.18;70.10;;;9.80;99.90;;;;;;4942385;29;20501;-56
2022/10/10 08:14:35;;;;;;;77.43;73.00;;;9.90;99.90;;;;;;4941801;29;20421;-55
2022/10/10 08:17:01;;;;;;;71.73;67.90;;;10.00;99.90;;;;;;4942707;29;20402;-55
2022/10/10 08:19:26;;;;;;;75.73;71.83;;;10.00;99.90;;;;;;4935532;29;20564;-52
2022/10/10 08:21:52;;;;;;;73.60;69.30;;;10.10;99.90;;;;;;4934778;29;20460;-53
2022/10/10 08:24:18;;;;;;;76.23;72.17;;;10.10;99.90;;;;;;4935348;29;20587;-51
2022/10/10 08:26:43;;;;;;;81.88;77.40;;;10.10;99.90;;;;;;4933903;29;20574;-54
2022/10/10 08:29:09;;;;;;;74.40;70.30;;;10.20;99.90;;;;;;4936077;29;20472;-53
2022/10/10 08:31:34;;;;;;;72.67;68.47;;;10.10;99.90;;;;;;4934020;29;20422;-61
2022/10/10 08:34:00;;;;;;;67.87;63.90;;;10.10;99.90;;;;;;4934944;29;20602;-61
2022/10/10 08:36:26;;;;;;;49.45;46.67;;;10.10;99.90;;;;;;4937354;29;20433;-60
2022/10/10 08:38:56;;;;;;;49.28;46.08;;;10.20;99.90;;;;;;4937975;29;20394;-61
2022/10/10 08:41:36;;;;;;;62.88;59.28;;;10.50;99.90;;;;;;4939934;29;20775;-61
2022/10/10 08:44:23;;;;;;;73.30;69.15;;;10.60;99.90;;;;;;4947051;29;20410;-60
2022/10/10 08:47:01;;;;;;;87.22;82.25;;;10.70;99.90;;;;;;4946261;29;20734;-58
2022/10/10 08:49:26;;;;;;;99.65;93.97;;;10.70;99.90;;;;;;4948074;29;20426;-60
2022/10/10 08:52:00;;;;;;;97.25;91.93;;;10.80;99.90;;;;;;4948638;29;20806;-56
2022/10/10 08:54:28;;;;;;;96.38;91.03;;;10.80;99.90;;;;;;4949093;29;20389;-54
2022/10/10 08:56:58;;;;;;;109.38;103.47;;;10.90;99.90;;;;;;4947521;29;20382;-56
2022/10/10 08:59:29;;;;;;;108.97;102.93;;;10.80;99.90;;;;;;4946714;29;20417;-53
2022/10/10 09:02:17;;;;;;;106.88;101.13;;;10.80;99.90;;;;;;4948816;29;20404;-57
2022/10/10 09:04:43;;;;;;;106.70;100.82;;;10.80;99.90;;;;;;4949363;29;20389;-55
2022/10/10 09:07:25;;;;;;;102.47;96.97;;;10.80;99.90;;;;;;4947527;28;20424;-55
2022/10/10 09:10:12;;;;;;;101.80;96.22;;;10.90;99.90;;;;;;4945561;29;20814;-53
2022/10/10 09:13:00;;;;;;;108.82;103.03;;;11.00;99.90;;;;;;4945104;29;20685;-57
2022/10/10 09:15:32;;;;;;;107.07;101.10;;;11.10;99.90;;;;;;4947070;29;20408;-53
2022/10/10 09:18:17;;;;;;;105.60;99.80;;;11.10;99.90;;;;;;4944282;29;20386;-53
2022/10/10 09:20:52;;;;;;;108.47;102.50;;;11.20;99.90;;;;;;4944615;29;20386;-56
2022/10/10 09:23:27;;;;;;;115.78;109.45;;;11.30;99.90;;;;;;4942742;29;20689;-55
2022/10/10 09:26:11;;;;;;;115.85;109.28;;;11.40;99.90;;;;;;4943428;29;20406;-52
2022/10/10 09:28:57;;;;;;;113.80;107.80;;;11.50;99.90;;;;;;4943935;29;20488;-57
2022/10/10 09:31:36;;;;;;;116.55;110.15;;;11.50;99.90;;;;;;4943562;29;20504;-55
2022/10/10 09:34:24;;;;;;;119.45;113.20;;;11.60;99.90;;;;;;4944508;29;20429;-55
2022/10/10 09:36:50;;;;;;;116.20;109.70;;;11.70;99.90;;;;;;4940845;29;20397;-55
2022/10/10 09:39:39;;;;;;;120.57;113.95;;;11.90;99.90;;;;;;4936062;29;20397;-52
2022/10/10 09:42:10;;;;;;;118.57;112.28;;;11.90;99.90;;;;;;4932878;29;21103;-57
2022/10/10 09:44:38;;;;;;;113.33;107.10;;;12.00;99.90;;;;;;4932763;29;20513;-55
2022/10/10 09:47:04;;;;;;;124.50;117.93;;;12.00;99.90;;;;;;4931634;29;20512;-53
2022/10/10 09:49:30;;;;;;;115.10;109.00;;;12.10;99.90;;;;;;4928881;29;20659;-52
2022/10/10 09:51:56;;;;;;;117.07;110.50;;;12.20;99.90;;;;;;4930413;29;20607;-55
2022/10/10 09:54:23;;;;;;;119.03;112.53;;;12.30;99.90;;;;;;4937801;29;20394;-55
2022/10/10 09:56:55;;;;;;;119.68;113.18;;;12.30;99.90;;;;;;4941541;29;20393;-53
2022/10/10 09:59:44;;;;;;;118.47;111.95;;;12.40;99.90;;;;;;4941271;29;20405;-55
2022/10/10 10:02:14;;;;;;;121.10;114.60;;;12.50;99.90;;;;;;4942875;29;20472;-56
2022/10/10 10:04:39;;;;;;;119.78;113.25;;;12.50;99.90;;;;;;4945674;29;20854;-52
2022/10/10 10:07:25;;;;;;;118.63;112.15;;;12.60;99.90;;;;;;4945858;28;21129;-56
2022/10/10 10:10:13;;;;;;;118.40;112.20;;;12.90;99.90;;;;;;4941599;29;20390;-57
2022/10/10 10:12:41;;;;;;;113.03;107.00;;;13.20;99.90;;;;;;4941785;29;20472;-54
2022/10/10 10:15:21;;;;;;;111.63;105.55;;;13.70;99.90;;;;;;4926222;29;20405;-56
2022/10/10 10:18:26;;;;;;;105.88;100.20;;;14.10;99.90;;;;;;4941684;29;20485;-53
2022/10/10 10:21:01;;;;;;;106.72;100.82;;;14.30;99.90;;;;;;4940709;28;20390;-55
2022/10/10 10:23:34;;;;;;;102.05;96.65;;;14.20;99.90;;;;;;4938545;29;20418;-56
2022/10/10 10:26:05;;;;;;;101.25;95.85;;;14.30;99.90;;;;;;4937333;29;20410;-55
2022/10/10 10:28:38;;;;;;;101.68;96.07;;;14.40;99.90;;;;;;4937299;29;20907;-56
2022/10/10 10:31:04;;;;;;;102.00;96.25;;;14.60;99.90;;;;;;4931974;29;20509;-53
2022/10/10 10:34:16;;;;;;;108.97;103.07;;;14.60;99.90;;;;;;4936239;28;20461;-55
2022/10/10 10:36:58;;;;;;;108.85;103.05;;;14.80;99.90;;;;;;4939233;28;20393;-56
2022/10/10 10:39:58;;;;;;;105.40;99.50;;;15.00;99.90;;;;;;4943665;28;20417;-56
2022/10/10 10:42:38;;;;;;;96.50;91.00;;;15.30;99.90;;;;;;4944294;28;20397;-54
2022/10/10 10:45:27;;;;;;;96.03;90.72;;;15.60;99.90;;;;;;4944352;29;20397;-53
2022/10/10 10:48:20;;;;;;;90.57;85.57;;;15.70;99.90;;;;;;4945330;28;21073;-55
2022/10/10 10:51:19;;;;;;;85.82;80.80;;;15.80;99.90;;;;;;4943550;29;20804;-55
2022/10/10 10:53:56;;;;;;;84.13;79.22;;;15.90;99.90;;;;;;4941551;29;20422;-55
2022/10/10 10:56:49;;;;;;;87.85;82.90;;;15.80;99.90;;;;;;4942351;28;20386;-54
2022/10/10 10:59:35;;;;;;;85.82;80.88;;;16.00;99.90;;;;;;4938494;28;20397;-53
2022/10/10 11:02:20;;;;;;;83.57;79.07;;;16.10;99.90;;;;;;4938673;29;20461;-55
2022/10/10 11:05:17;;;;;;;82.57;77.47;;;16.50;99.90;;;;;;4935202;28;20877;-55
2022/10/10 11:08:19;;;;;;;77.20;72.93;;;16.40;99.90;;;;;;4934063;29;20903;-54
2022/10/10 11:11:25;;;;;;;78.70;74.37;;;16.50;99.90;;;;;;4932531;28;20393;-52
2022/10/10 11:14:02;;;;;;;75.30;70.93;;;16.70;99.90;;;;;;4929399;28;20429;-54
2022/10/10 11:16:31;;;;;;;73.57;69.38;;;16.90;99.90;;;;;;4925306;29;20448;-52
2022/10/10 11:19:15;;;;;;;80.18;75.38;;;16.80;99.90;;;;;;4925465;28;20497;-53
2022/10/10 11:21:48;;;;;;;71.10;66.97;;;16.50;99.90;;;;;;4924817;28;20386;-53
2022/10/10 11:24:34;;;;;;;81.20;76.50;;;16.60;99.90;;;;;;4928059;28;20378;-54
2022/10/10 11:27:08;;;;;;;71.15;67.22;;;16.90;99.90;;;;;;4925488;29;20512;-56
2022/10/10 11:29:53;;;;;;;69.47;65.53;;;17.20;99.90;;;;;;4931703;29;20437;-51
2022/10/10 11:32:29;;;;;;;72.78;68.68;;;17.40;99.90;;;;;;4931592;28;20414;-52
2022/10/10 11:35:06;;;;;;;67.63;63.75;;;17.60;99.90;;;;;;4930055;29;20449;-54
2022/10/10 11:37:37;;;;;;;64.85;61.10;;;17.70;99.90;;;;;;4933483;29;20489;-53
2022/10/10 11:40:05;;;;;;;66.35;62.63;;;17.50;99.90;;;;;;4934274;28;20416;-54
2022/10/10 11:42:45;;;;;;;61.92;58.33;;;17.70;99.90;;;;;;4938378;29;20488;-56
2022/10/10 11:45:19;;;;;;;71.93;67.93;;;17.60;99.90;;;;;;4941346;29;20436;-51
2022/10/10 11:48:04;;;;;;;77.82;73.63;;;17.80;99.90;;;;;;4947254;28;20390;-56
2022/10/10 11:50:35;;;;;;;68.90;64.88;;;18.10;99.90;;;;;;4944999;29;21000;-54
2022/10/10 11:53:07;;;;;;;80.03;75.40;;;18.20;99.90;;;;;;4945491;29;20394;-54
2022/10/10 11:55:48;;;;;;;86.32;81.35;;;18.30;99.90;;;;;;4947282;28;20421;-52
2022/10/10 11:58:34;;;;;;;82.88;78.05;;;18.30;99.90;;;;;;4946436;28;20409;-53
2022/10/10 12:01:25;;;;;;;83.85;79.03;;;18.40;99.90;;;;;;4944940;29;20406;-56
2022/10/10 12:03:51;;;;;;;77.82;73.30;;;18.30;99.90;;;;;;4944754;28;20562;-55
2022/10/10 12:06:42;;;;;;;80.30;75.60;;;18.40;99.90;;;;;;4941945;29;20517;-54
2022/10/10 12:09:17;;;;;;;84.90;80.10;;;18.30;99.90;;;;;;4946038;28;20400;-53
2022/10/10 12:12:07;;;;;;;86.53;81.32;;;18.30;99.90;;;;;;4943598;29;20495;-56
2022/10/10 12:14:36;;;;;;;86.13;80.93;;;18.10;99.90;;;;;;4941090;29;20398;-54
2022/10/10 12:17:02;;;;;;;85.03;80.00;;;18.00;99.90;;;;;;4942832;29;20449;-54
2022/10/10 12:19:28;;;;;;;84.05;79.10;;;18.30;99.90;;;;;;4945210;28;20393;-54
2022/10/10 12:22:03;;;;;;;74.68;70.15;;;18.30;99.90;;;;;;4945025;28;20401;-55
2022/10/10 12:24:32;;;;;;;81.75;77.15;;;18.00;99.90;;;;;;4947670;28;20404;-55
2022/10/10 12:26:58;;;;;;;78.25;73.85;;;17.80;99.90;;;;;;4949736;28;20406;-52
2022/10/10 12:29:44;;;;;;;85.78;80.85;;;17.60;99.90;;;;;;4949031;28;20424;-54
2022/10/10 12:32:25;;;;;;;83.45;78.47;;;17.50;99.90;;;;;;4947582;28;21105;-53
2022/10/10 12:34:50;;;;;;;81.43;76.63;;;17.50;99.90;;;;;;4946694;29;20386;-56
2022/10/10 12:37:33;;;;;;;86.87;81.67;;;17.50;99.90;;;;;;4946146;28;20394;-56
2022/10/10 12:40:04;;;;;;;80.80;76.10;;;17.40;99.90;;;;;;4946826;28;20449;-55
2022/10/10 12:42:56;;;;;;;89.90;84.32;;;17.40;99.90;;;;;;4944258;28;20520;-56
2022/10/10 12:45:28;;;;;;;86.38;81.47;;;17.60;99.90;;;;;;4940763;29;20764;-54
2022/10/10 12:47:58;;;;;;;87.10;81.72;;;18.10;99.90;;;;;;4941097;28;20966;-55
2022/10/10 12:50:53;;;;;;;86.87;81.77;;;18.40;99.90;;;;;;4944377;28;20378;-54
2022/10/10 12:53:21;;;;;;;79.90;75.30;;;18.40;99.90;;;;;;4942963;28;20398;-54